Time;durP1;ratioP1;P1;durP2;ratioP2;P2;SDS_P1;SDS_P2;PMS_P1;PMS_P2;Temp;Humidity;BMP_temperature;BMP_pressure;BME280_temperature;BME280_humidity;BME280_pressure;Samples;Min_cycle;Max_cycle;Signal;HPM_P1;HPM_P2
2022/06/01 00:01:15;;;;;;;10.90;10.20;;;;;;;;;;5033352;28;20037;-60
2022/06/01 00:03:42;;;;;;;9.95;9.27;;;;;;;;;;5033120;28;20033;-60
2022/06/01 00:06:09;;;;;;;11.57;10.88;;;;;;;;;;5036150;28;20387;-60
2022/06/01 00:08:35;;;;;;;10.52;9.82;;;;;;;;;;5034315;28;20035;-60
2022/06/01 00:11:01;;;;;;;12.25;11.45;;;;;;;;;;5031468;28;20029;-61
2022/06/01 00:13:26;;;;;;;9.90;9.27;;;;;;;;;;5034451;28;20455;-61
2022/06/01 00:15:52;;;;;;;9.93;9.18;;;;;;;;;;5034120;28;20034;-60
2022/06/01 00:18:18;;;;;;;12.70;11.90;;;;;;;;;;5033177;28;20029;-60
2022/06/01 00:20:44;;;;;;;12.45;11.75;;;;;;;;;;5035191;28;20233;-61
2022/06/01 00:23:09;;;;;;;13.52;12.73;;;;;;;;;;5030801;28;20043;-60
2022/06/01 00:25:35;;;;;;;11.88;11.18;;;;;;;;;;5034280;28;20043;-60
2022/06/01 00:28:00;;;;;;;12.77;11.98;;;;;;;;;;5032031;28;20037;-60
2022/06/01 00:30:26;;;;;;;12.63;11.63;;;;;;;;;;5032006;28;20119;-60
2022/06/01 00:32:52;;;;;;;9.25;8.55;;;;;;;;;;5037991;28;20382;-60
2022/06/01 00:35:20;;;;;;;8.57;7.97;;;;;;;;;;5035629;28;20025;-60
2022/06/01 00:37:45;;;;;;;7.75;7.25;;;;;;;;;;5031006;28;20032;-60
2022/06/01 00:40:13;;;;;;;8.25;7.70;;;;;;;;;;5031463;28;20044;-60
2022/06/01 00:42:40;;;;;;;7.45;6.95;;;;;;;;;;5036109;28;20033;-60
2022/06/01 00:45:08;;;;;;;8.32;7.72;;;;;;;;;;5034601;28;20513;-60
2022/06/01 00:47:33;;;;;;;8.18;7.68;;;;;;;;;;5031004;28;20024;-60
2022/06/01 00:50:13;;;;;;;7.38;6.88;;;;;;;;;;5034756;28;20075;-60
2022/06/01 00:52:45;;;;;;;6.80;6.30;;;;;;;;;;5034290;28;20628;-60
2022/06/01 00:55:27;;;;;;;8.40;7.80;;;;;;;;;;5030851;28;20264;-60
2022/06/01 00:57:58;;;;;;;8.10;7.57;;;;;;;;;;5034544;28;20032;-60
2022/06/01 01:00:27;;;;;;;7.68;7.18;;;;;;;;;;5033191;28;20064;-60
2022/06/01 01:02:55;;;;;;;7.93;7.43;;;;;;;;;;5033140;28;20036;-60
2022/06/01 01:05:21;;;;;;;7.53;7.03;;;;;;;;;;5029644;28;20036;-60
2022/06/01 01:07:47;;;;;;;7.35;6.85;;;;;;;;;;5031621;28;20035;-60
2022/06/01 01:10:14;;;;;;;7.53;7.03;;;;;;;;;;5015945;28;20037;-60
2022/06/01 01:15:43;;;;;;;7.13;6.63;;;;;;;;;;5032198;28;20557;-61
2022/06/01 01:18:16;;;;;;;7.47;6.97;;;;;;;;;;5036455;28;20628;-60
2022/06/01 01:21:04;;;;;;;8.50;7.97;;;;;;;;;;5027399;28;20029;-60
2022/06/01 01:23:56;;;;;;;7.88;7.35;;;;;;;;;;5031423;28;20040;-60
2022/06/01 01:26:23;;;;;;;7.90;7.40;;;;;;;;;;5032279;28;20355;-60
2022/06/01 01:28:48;;;;;;;7.57;7.07;;;;;;;;;;5029226;28;20637;-60
2022/06/01 01:31:18;;;;;;;8.38;7.78;;;;;;;;;;5032158;28;20037;-60
2022/06/01 01:33:45;;;;;;;8.13;7.55;;;;;;;;;;5030768;28;20060;-60
2022/06/01 01:36:14;;;;;;;8.15;7.65;;;;;;;;;;5029936;28;20022;-60
2022/06/01 01:38:46;;;;;;;6.95;6.45;;;;;;;;;;5031623;28;20171;-60
2022/06/01 01:41:14;;;;;;;17.42;7.50;;;;;;;;;;5036747;28;20034;-60
2022/06/01 01:43:46;;;;;;;8.25;7.72;;;;;;;;;;5031021;28;20099;-60
2022/06/01 01:46:11;;;;;;;8.70;8.10;;;;;;;;;;5029101;28;20090;-60
2022/06/01 01:48:37;;;;;;;8.93;8.32;;;;;;;;;;5033047;28;20465;-60
2022/06/01 01:51:03;;;;;;;8.10;7.60;;;;;;;;;;5031476;28;20041;-60
2022/06/01 01:53:32;;;;;;;7.80;7.30;;;;;;;;;;5033771;28;20108;-60
2022/06/01 01:56:05;;;;;;;8.60;8.10;;;;;;;;;;5034845;28;20033;-60
2022/06/01 01:59:08;;;;;;;8.75;8.15;;;;;;;;;;5028837;28;20037;-60
2022/06/01 02:01:44;;;;;;;8.68;8.07;;;;;;;;;;5030693;28;20162;-60
2022/06/01 02:07:11;;;;;;;10.25;9.57;;;;;;;;;;5032109;28;20581;-60
2022/06/01 02:15:08;;;;;;;10.55;9.88;;;;;;;;;;5031682;28;20370;-60
2022/06/01 02:17:48;;;;;;;10.90;10.20;;;;;;;;;;5028781;28;20021;-60
2022/06/01 02:20:19;;;;;;;13.00;12.20;;;;;;;;;;5026132;28;20057;-60
2022/06/01 02:22:44;;;;;;;12.48;11.77;;;;;;;;;;5032288;28;20061;-60
2022/06/01 02:25:11;;;;;;;22.20;12.55;;;;;;;;;;5034229;28;20065;-60
2022/06/01 02:27:39;;;;;;;14.00;13.18;;;;;;;;;;5029670;28;20144;-60
2022/06/01 02:30:12;;;;;;;13.63;12.73;;;;;;;;;;5030673;28;20051;-60
2022/06/01 02:32:39;;;;;;;14.63;13.75;;;;;;;;;;5033650;28;20374;-60
2022/06/01 02:35:07;;;;;;;14.10;13.30;;;;;;;;;;5036510;28;20068;-60
2022/06/01 02:37:35;;;;;;;18.13;17.00;;;;;;;;;;5035732;28;20494;-60
2022/06/01 02:40:07;;;;;;;16.00;15.10;;;;;;;;;;5034772;28;20041;-60
2022/06/01 02:42:33;;;;;;;16.30;15.35;;;;;;;;;;5035628;28;20120;-60
2022/06/01 02:45:07;;;;;;;20.00;18.90;;;;;;;;;;5036384;28;20045;-60
2022/06/01 02:47:40;;;;;;;17.75;16.70;;;;;;;;;;5036732;28;20040;-60
2022/06/01 02:50:07;;;;;;;20.00;16.75;;;;;;;;;;5034470;28;20033;-60
2022/06/01 02:52:33;;;;;;;17.92;16.92;;;;;;;;;;5036544;28;20118;-60
2022/06/01 02:54:59;;;;;;;17.00;16.00;;;;;;;;;;5039333;28;20032;-60
2022/06/01 02:57:24;;;;;;;17.50;16.50;;;;;;;;;;5035866;28;20032;-60
2022/06/01 02:59:50;;;;;;;17.60;16.60;;;;;;;;;;5035955;28;20466;-60
2022/06/01 03:02:17;;;;;;;15.43;14.52;;;;;;;;;;5032411;28;20471;-60
2022/06/01 03:04:43;;;;;;;14.30;13.48;;;;;;;;;;5035061;28;20045;-60
2022/06/01 03:07:10;;;;;;;15.63;14.73;;;;;;;;;;5032190;28;20047;-60
2022/06/01 03:09:35;;;;;;;20.80;19.63;;;;;;;;;;5031479;28;20036;-60
2022/06/01 03:12:00;;;;;;;17.58;16.58;;;;;;;;;;5033305;28;20112;-60
2022/06/01 03:14:27;;;;;;;17.65;16.65;;;;;;;;;;5032794;28;20827;-60
2022/06/01 03:16:53;;;;;;;15.90;15.00;;;;;;;;;;5034491;28;20025;-60
2022/06/01 03:19:18;;;;;;;15.13;14.13;;;;;;;;;;5033836;28;20099;-60
2022/06/01 03:21:43;;;;;;;18.35;17.30;;;;;;;;;;5032439;28;20455;-60
2022/06/01 03:24:09;;;;;;;19.58;18.50;;;;;;;;;;5033843;28;20128;-60
2022/06/01 03:26:35;;;;;;;16.88;15.88;;;;;;;;;;5037037;28;20036;-59
2022/06/01 03:29:01;;;;;;;17.90;16.90;;;;;;;;;;5033275;28;20824;-60
2022/06/01 03:31:27;;;;;;;16.77;15.82;;;;;;;;;;5032337;28;20371;-60
2022/06/01 03:33:52;;;;;;;14.88;14.07;;;;;;;;;;5035561;28;20025;-60
2022/06/01 03:36:19;;;;;;;19.08;17.80;;;;;;;;;;5032873;28;20032;-60
2022/06/01 03:38:44;;;;;;;20.90;19.77;;;;;;;;;;5036447;28;20025;-60
2022/06/01 03:41:09;;;;;;;20.48;19.38;;;;;;;;;;5032746;28;20379;-60
2022/06/01 03:46:19;;;;;;;19.88;18.77;;;;;;;;;;5032787;28;20033;-60
2022/06/01 03:48:44;;;;;;;16.38;15.48;;;;;;;;;;5033558;28;20041;-60
2022/06/01 03:51:09;;;;;;;15.73;14.82;;;;;;;;;;5033592;28;20041;-60
2022/06/01 03:53:35;;;;;;;17.48;16.48;;;;;;;;;;5032463;28;20518;-60
2022/06/01 03:56:02;;;;;;;19.58;18.42;;;;;;;;;;5031065;28;20033;-59
2022/06/01 03:58:28;;;;;;;17.52;16.55;;;;;;;;;;5035314;28;20429;-59
2022/06/01 04:00:55;;;;;;;14.57;13.73;;;;;;;;;;5033371;28;20028;-59
2022/06/01 04:03:21;;;;;;;16.02;15.13;;;;;;;;;;5031034;28;20033;-59
2022/06/01 04:05:46;;;;;;;14.70;13.88;;;;;;;;;;5034249;28;20094;-60
2022/06/01 04:08:12;;;;;;;15.73;14.82;;;;;;;;;;5035031;28;20131;-60
2022/06/01 04:10:42;;;;;;;15.15;14.25;;;;;;;;;;5033874;28;20036;-60
2022/06/01 04:13:07;;;;;;;13.45;12.65;;;;;;;;;;5030315;28;20064;-59
2022/06/01 04:15:32;;;;;;;15.60;14.70;;;;;;;;;;5032673;28;20648;-59
2022/06/01 04:17:58;;;;;;;15.40;14.43;;;;;;;;;;5035014;28;20403;-59
2022/06/01 04:20:23;;;;;;;12.27;11.48;;;;;;;;;;5033446;28;20029;-59
2022/06/01 04:22:49;;;;;;;9.88;9.27;;;;;;;;;;5037113;28;20033;-59
2022/06/01 04:25:17;;;;;;;10.05;9.45;;;;;;;;;;5033763;28;20044;-59
2022/06/01 04:27:44;;;;;;;8.15;7.57;;;;;;;;;;5030255;28;20044;-59
2022/06/01 04:30:12;;;;;;;7.72;7.22;;;;;;;;;;5034140;28;20033;-59
2022/06/01 04:32:38;;;;;;;8.27;7.68;;;;;;;;;;5032238;28;20076;-59
2022/06/01 04:35:05;;;;;;;7.30;6.70;;;;;;;;;;5034188;28;20025;-59
2022/06/01 04:37:31;;;;;;;6.95;6.45;;;;;;;;;;5034909;28;20091;-59
2022/06/01 04:39:56;;;;;;;7.88;7.38;;;;;;;;;;5033551;28;20421;-59
2022/06/01 04:42:21;;;;;;;8.45;7.93;;;;;;;;;;5032637;28;20064;-59
2022/06/01 04:44:47;;;;;;;9.13;8.52;;;;;;;;;;5030701;28;20127;-59
2022/06/01 04:47:13;;;;;;;9.27;8.68;;;;;;;;;;5031155;28;20066;-59
2022/06/01 04:49:39;;;;;;;10.77;10.07;;;;;;;;;;5030791;28;20064;-59
2022/06/01 04:52:05;;;;;;;12.70;11.90;;;;;;;;;;5031606;28;20128;-59
2022/06/01 04:54:31;;;;;;;15.30;14.40;;;;;;;;;;5031017;28;20037;-59
2022/06/01 04:56:57;;;;;;;13.85;12.95;;;;;;;;;;5031528;28;20573;-59
2022/06/01 04:59:22;;;;;;;14.95;14.10;;;;;;;;;;5034053;28;20025;-59
2022/06/01 05:01:48;;;;;;;17.33;16.35;;;;;;;;;;5030749;28;20049;-59
2022/06/01 05:04:13;;;;;;;15.40;14.50;;;;;;;;;;5029087;28;20029;-59
2022/06/01 05:06:39;;;;;;;18.88;17.83;;;;;;;;;;5026763;28;20083;-59
2022/06/01 05:09:04;;;;;;;20.90;19.77;;;;;;;;;;5033826;28;20065;-60
2022/06/01 05:11:30;;;;;;;13.10;12.20;;;;;;;;;;5031050;28;20029;-59
2022/06/01 05:13:55;;;;;;;17.65;16.60;;;;;;;;;;5036866;28;20090;-59
2022/06/01 05:16:20;;;;;;;29.42;27.88;;;;;;;;;;5027776;28;20029;-59
2022/06/01 05:18:46;;;;;;;25.92;24.42;;;;;;;;;;5034319;28;20029;-58
2022/06/01 05:21:11;;;;;;;27.70;26.20;;;;;;;;;;5028577;28;20128;-60
2022/06/01 05:23:36;;;;;;;24.23;22.92;;;;;;;;;;5029869;28;20095;-58
2022/06/01 05:26:03;;;;;;;29.90;28.30;;;;;;;;;;5029919;28;20116;-59
2022/06/01 05:28:30;;;;;;;32.17;30.42;;;;;;;;;;5028576;28;20267;-59
2022/06/01 05:31:14;;;;;;;33.50;31.77;;;;;;;;;;5030642;28;20037;-58
2022/06/01 05:33:45;;;;;;;32.35;30.67;;;;;;;;;;5033480;28;20017;-58
2022/06/01 05:36:13;;;;;;;36.72;34.83;;;;;;;;;;5030739;28;20502;-58
2022/06/01 05:38:38;;;;;;;32.08;30.38;;;;;;;;;;5032314;28;20517;-61
2022/06/01 05:41:04;;;;;;;32.53;30.83;;;;;;;;;;5031426;28;20033;-60
2022/06/01 05:43:30;;;;;;;26.55;25.15;;;;;;;;;;5032401;28;20078;-61
2022/06/01 05:45:55;;;;;;;30.45;28.85;;;;;;;;;;5028622;28;20119;-61
2022/06/01 05:48:21;;;;;;;20.85;19.73;;;;;;;;;;5028702;28;20060;-60
2022/06/01 05:50:47;;;;;;;24.05;22.75;;;;;;;;;;5027574;28;20032;-61
2022/06/01 05:53:12;;;;;;;24.48;23.17;;;;;;;;;;5030057;28;20037;-60
2022/06/01 05:55:38;;;;;;;19.95;18.85;;;;;;;;;;5029920;28;20071;-60
2022/06/01 05:58:15;;;;;;;18.35;17.35;;;;;;;;;;5029918;28;20047;-61
2022/06/01 06:00:42;;;;;;;15.75;14.85;;;;;;;;;;5033245;28;20137;-60
2022/06/01 06:03:07;;;;;;;12.77;11.98;;;;;;;;;;5032068;28;20048;-60
2022/06/01 06:08:19;;;;;;;9.48;8.88;;;;;;;;;;5034032;28;20486;-59
2022/06/01 06:10:44;;;;;;;9.93;9.32;;;;;;;;;;5036922;28;20086;-60
2022/06/01 06:13:10;;;;;;;10.35;9.75;;;;;;;;;;5032632;28;20613;-59
2022/06/01 06:15:35;;;;;;;9.60;9.00;;;;;;;;;;5037008;28;20136;-59
2022/06/01 06:18:00;;;;;;;8.75;8.15;;;;;;;;;;5037046;28;20052;-59
2022/06/01 06:20:26;;;;;;;9.85;9.25;;;;;;;;;;5031025;28;20029;-60
2022/06/01 06:22:51;;;;;;;9.13;8.52;;;;;;;;;;5034898;28;20425;-60
2022/06/01 06:25:16;;;;;;;7.10;6.60;;;;;;;;;;5035439;28;20095;-59
2022/06/01 06:27:42;;;;;;;7.22;6.72;;;;;;;;;;5036797;28;20064;-60
2022/06/01 06:30:08;;;;;;;6.32;5.82;;;;;;;;;;5033867;28;20586;-59
2022/06/01 06:32:34;;;;;;;7.07;6.57;;;;;;;;;;5038466;28;20474;-59
2022/06/01 06:34:59;;;;;;;6.38;5.90;;;;;;;;;;5036841;28;20043;-59
2022/06/01 06:37:24;;;;;;;7.25;6.70;;;;;;;;;;5037252;28;20029;-60
2022/06/01 06:39:50;;;;;;;6.95;6.45;;;;;;;;;;5037957;28;20029;-60
2022/06/01 06:42:15;;;;;;;6.75;6.25;;;;;;;;;;5034924;28;20112;-60
2022/06/01 06:44:40;;;;;;;7.32;6.80;;;;;;;;;;5038378;28;20076;-60
2022/06/01 06:47:06;;;;;;;7.32;6.82;;;;;;;;;;5035352;28;20033;-59
2022/06/01 06:49:31;;;;;;;9.02;8.43;;;;;;;;;;5035588;28;20059;-60
2022/06/01 06:51:57;;;;;;;6.50;6.00;;;;;;;;;;5030537;28;20037;-60
2022/06/01 06:54:22;;;;;;;6.65;6.18;;;;;;;;;;5029810;28;20605;-61
2022/06/01 06:56:48;;;;;;;9.45;8.77;;;;;;;;;;5034126;28;21085;-60
2022/06/01 06:59:15;;;;;;;6.80;6.30;;;;;;;;;;5030228;28;20470;-60
2022/06/01 07:01:41;;;;;;;7.78;7.28;;;;;;;;;;5032169;28;20374;-59
2022/06/01 07:04:06;;;;;;;6.90;6.40;;;;;;;;;;5029618;28;20033;-60
2022/06/01 07:06:31;;;;;;;7.45;6.95;;;;;;;;;;5034215;28;20547;-61
2022/06/01 07:08:57;;;;;;;8.98;8.38;;;;;;;;;;5036096;28;20351;-60
2022/06/01 07:11:25;;;;;;;7.43;6.93;;;;;;;;;;5033037;28;20108;-61
2022/06/01 07:13:51;;;;;;;7.13;6.63;;;;;;;;;;5034169;28;20044;-61
2022/06/01 07:16:28;;;;;;;7.28;6.78;;;;;;;;;;5038020;28;20034;-61
2022/06/01 07:18:55;;;;;;;7.20;6.70;;;;;;;;;;5031395;28;20119;-60
2022/06/01 07:21:22;;;;;;;8.32;7.72;;;;;;;;;;5030593;28;20144;-60
2022/06/01 07:23:48;;;;;;;7.40;6.90;;;;;;;;;;5033318;28;20107;-64
2022/06/01 07:26:19;;;;;;;8.63;8.02;;;;;;;;;;5028031;28;20029;-60
2022/06/01 07:28:45;;;;;;;7.72;7.22;;;;;;;;;;5031422;28;20054;-60
2022/06/01 07:31:13;;;;;;;8.45;7.95;;;;;;;;;;5032023;28;20033;-60
2022/06/01 07:33:39;;;;;;;9.90;9.20;;;;;;;;;;5034064;28;20033;-60
2022/06/01 07:36:06;;;;;;;8.65;8.05;;;;;;;;;;5028836;28;20539;-61
2022/06/01 07:44:06;;;;;;;16.38;15.48;;;;;;;;;;5034076;28;20049;-60
2022/06/01 07:46:36;;;;;;;19.40;18.30;;;;;;;;;;5033022;28;20076;-60
2022/06/01 07:49:03;;;;;;;19.47;18.37;;;;;;;;;;5030161;28;20512;-60
2022/06/01 07:51:29;;;;;;;22.98;21.77;;;;;;;;;;5031231;28;20112;-60
2022/06/01 07:53:55;;;;;;;24.65;23.35;;;;;;;;;;5032860;28;20221;-60
2022/06/01 07:56:20;;;;;;;18.80;17.80;;;;;;;;;;5034163;28;20116;-60
2022/06/01 07:58:46;;;;;;;19.73;18.63;;;;;;;;;;5032882;28;20040;-60
2022/06/01 08:01:11;;;;;;;19.25;18.20;;;;;;;;;;5032487;28;20320;-60
2022/06/01 08:03:37;;;;;;;22.02;20.83;;;;;;;;;;5034110;28;20071;-60
2022/06/01 08:06:03;;;;;;;24.10;22.73;;;;;;;;;;5028287;28;20122;-59
2022/06/01 08:08:28;;;;;;;27.25;25.75;;;;;;;;;;5024778;28;20048;-60
2022/06/01 08:10:54;;;;;;;25.33;24.00;;;;;;;;;;5030804;28;20049;-60
2022/06/01 08:13:19;;;;;;;22.20;21.00;;;;;;;;;;5028938;28;20175;-59
2022/06/01 08:15:47;;;;;;;23.05;21.83;;;;;;;;;;5029179;28;20033;-58
2022/06/01 08:18:17;;;;;;;20.80;19.60;;;;;;;;;;5026465;28;20041;-58
2022/06/01 08:20:43;;;;;;;19.80;18.70;;;;;;;;;;5026810;28;20033;-59
2022/06/01 08:23:09;;;;;;;20.23;19.13;;;;;;;;;;5025619;28;20112;-59
2022/06/01 08:25:35;;;;;;;23.90;22.52;;;;;;;;;;5028379;28;20107;-59
2022/06/01 08:28:01;;;;;;;26.25;24.85;;;;;;;;;;5025831;28;20037;-58
2022/06/01 08:30:29;;;;;;;15.63;14.73;;;;;;;;;;5027805;28;20468;-59
2022/06/01 08:32:55;;;;;;;14.15;13.35;;;;;;;;;;5029535;28;20047;-59
2022/06/01 08:35:26;;;;;;;18.13;17.13;;;;;;;;;;5028183;28;20033;-59
2022/06/01 08:37:51;;;;;;;17.33;16.33;;;;;;;;;;5029344;28;20116;-59
2022/06/01 08:40:20;;;;;;;16.85;15.88;;;;;;;;;;5027961;28;20420;-58
2022/06/01 08:42:55;;;;;;;10.98;10.27;;;;;;;;;;5032049;28;20026;-59
2022/06/01 08:45:22;;;;;;;10.77;10.13;;;;;;;;;;5028773;28;20618;-58
2022/06/01 08:47:48;;;;;;;13.13;12.32;;;;;;;;;;5034420;28;20033;-58
2022/06/01 08:50:27;;;;;;;13.52;12.73;;;;;;;;;;5025994;28;20064;-59
2022/06/01 08:52:55;;;;;;;11.65;10.95;;;;;;;;;;5031700;28;20036;-59
2022/06/01 08:55:21;;;;;;;13.85;13.05;;;;;;;;;;5031540;28;20032;-58
2022/06/01 08:57:59;;;;;;;12.55;11.85;;;;;;;;;;5034905;28;20025;-58
2022/06/01 09:00:29;;;;;;;13.15;12.35;;;;;;;;;;5030689;28;20451;-58
2022/06/01 09:03:08;;;;;;;14.88;14.07;;;;;;;;;;5032477;28;20076;-59
2022/06/01 09:05:54;;;;;;;12.05;11.35;;;;;;;;;;5032550;28;20026;-58
2022/06/01 09:08:46;;;;;;;14.73;13.88;;;;;;;;;;5032525;28;20033;-58
2022/06/01 09:11:16;;;;;;;14.70;13.80;;;;;;;;;;5031922;28;20029;-59
2022/06/01 09:14:20;;;;;;;14.70;13.90;;;;;;;;;;5028184;28;20095;-58
2022/06/01 09:16:51;;;;;;;14.93;14.05;;;;;;;;;;5029975;28;20033;-58
2022/06/01 09:19:25;;;;;;;13.98;13.18;;;;;;;;;;5033754;28;20043;-58
2022/06/01 09:24:54;;;;;;;19.17;18.13;;;;;;;;;;5033181;28;20017;-58
2022/06/01 09:27:38;;;;;;;21.48;19.98;;;;;;;;;;5031148;28;20451;-58
2022/06/01 09:30:19;;;;;;;22.20;21.02;;;;;;;;;;5034774;28;20056;-58
2022/06/01 09:33:10;;;;;;;22.10;20.90;;;;;;;;;;5032621;28;20401;-58
2022/06/01 09:35:40;;;;;;;19.58;18.52;;;;;;;;;;5029588;28;20044;-60
2022/06/01 09:38:47;;;;;;;22.67;21.47;;;;;;;;;;5032494;28;20040;-58
2022/06/01 09:41:24;;;;;;;22.30;20.98;;;;;;;;;;5035685;28;20856;-59
2022/06/01 09:44:32;;;;;;;28.27;26.77;;;;;;;;;;5034070;28;20031;-59
2022/06/01 09:47:00;;;;;;;23.88;22.58;;;;;;;;;;4992126;28;20700;-58
2022/06/01 09:49:29;;;;;;;24.55;23.25;;;;;;;;;;4993827;28;20030;-59
2022/06/01 09:52:00;;;;;;;24.52;23.23;;;;;;;;;;5015591;28;20642;-58
2022/06/01 09:54:30;;;;;;;21.02;19.92;;;;;;;;;;5036630;28;20035;-58
2022/06/01 09:56:56;;;;;;;21.55;20.38;;;;;;;;;;5034916;28;20344;-58
2022/06/01 10:08:23;;;;;;;78.32;74.43;;;;;;;;;;5033724;28;20045;-59
2022/06/01 10:10:58;;;;;;;73.88;70.18;;;;;;;;;;5036905;28;20029;-57
2022/06/01 10:13:33;;;;;;;96.00;91.20;;;;;;;;;;5032429;28;20037;-59
2022/06/01 10:16:37;;;;;;;69.35;65.85;;;;;;;;;;5030896;28;20043;-59
2022/06/01 10:19:08;;;;;;;38.97;36.97;;;;;;;;;;5017009;28;20143;-58
2022/06/01 10:21:58;;;;;;;48.70;46.22;;;;;;;;;;5032866;28;20037;-60
2022/06/01 10:24:31;;;;;;;95.28;90.57;;;;;;;;;;5034477;28;20649;-61
2022/06/01 10:26:59;;;;;;;96.55;91.80;;;;;;;;;;5031280;28;20068;-61
2022/06/01 10:29:34;;;;;;;82.70;78.60;;;;;;;;;;5033346;28;20528;-60
2022/06/01 10:32:11;;;;;;;46.63;44.28;;;;;;;;;;5034447;28;20128;-60
2022/06/01 10:34:48;;;;;;;110.88;105.43;;;;;;;;;;5033269;28;20971;-59
2022/06/01 10:37:23;;;;;;;92.32;87.75;;;;;;;;;;5034551;28;20123;-60
2022/06/01 10:40:11;;;;;;;83.00;78.82;;;;;;;;;;5036461;28;20033;-61
2022/06/01 10:43:18;;;;;;;62.72;59.60;;;;;;;;;;5035501;28;20530;-60
2022/06/01 10:45:53;;;;;;;70.70;67.20;;;;;;;;;;5035238;28;20597;-61
2022/06/01 10:48:29;;;;;;;95.53;90.80;;;;;;;;;;5033401;28;20037;-59
2022/06/01 10:51:22;;;;;;;80.75;76.75;;;;;;;;;;5033407;28;20048;-60
2022/06/01 10:53:55;;;;;;;67.93;64.47;;;;;;;;;;5020305;28;20411;-60
2022/06/01 10:56:22;;;;;;;74.32;70.65;;;;;;;;;;5030342;28;20025;-59
2022/06/01 10:58:49;;;;;;;72.55;68.95;;;;;;;;;;5034364;28;20033;-59
2022/06/01 11:01:41;;;;;;;78.90;75.00;;;;;;;;;;5035308;28;20021;-59
2022/06/01 11:04:47;;;;;;;74.68;70.95;;;;;;;;;;5035610;28;20049;-60
2022/06/01 11:07:15;;;;;;;82.63;78.53;;;;;;;;;;5032212;28;20112;-61
2022/06/01 11:09:53;;;;;;;94.65;89.95;;;;;;;;;;5033409;28;20138;-60
2022/06/01 11:12:36;;;;;;;53.40;50.70;;;;;;;;;;5030235;28;20040;-59
2022/06/01 11:15:15;;;;;;;80.82;76.82;;;;;;;;;;5032670;28;20567;-60
2022/06/01 11:18:10;;;;;;;103.30;98.20;;;;;;;;;;5035713;28;20033;-60
2022/06/01 11:20:51;;;;;;;59.90;56.88;;;;;;;;;;5015197;28;20115;-59
2022/06/01 11:23:48;;;;;;;47.50;45.10;;;;;;;;;;5032660;28;20134;-58
2022/06/01 11:26:47;;;;;;;36.00;34.15;;;;;;;;;;5032196;28;20029;-61
2022/06/01 11:29:32;;;;;;;34.50;32.65;;;;;;;;;;5031074;28;20129;-60
2022/06/01 11:32:02;;;;;;;24.05;22.67;;;;;;;;;;5038059;28;20033;-60
2022/06/01 11:34:38;;;;;;;23.80;22.50;;;;;;;;;;5032810;28;20025;-58
2022/06/01 11:37:11;;;;;;;19.48;18.40;;;;;;;;;;5032283;28;20437;-59
2022/06/01 11:39:55;;;;;;;22.48;21.27;;;;;;;;;;5031952;28;20422;-59
2022/06/01 11:42:57;;;;;;;18.85;17.85;;;;;;;;;;5034525;28;20021;-61
2022/06/01 11:45:33;;;;;;;22.08;20.88;;;;;;;;;;5027024;28;20391;-59
2022/06/01 11:48:24;;;;;;;24.13;22.83;;;;;;;;;;5034254;28;20036;-60
2022/06/01 11:51:11;;;;;;;20.33;19.23;;;;;;;;;;5030254;28;20037;-60
2022/06/01 11:54:02;;;;;;;28.45;26.95;;;;;;;;;;5035983;28;20057;-58
2022/06/01 11:56:30;;;;;;;21.95;20.75;;;;;;;;;;5032549;28;20059;-60
2022/06/01 11:58:58;;;;;;;22.20;21.00;;;;;;;;;;5033016;28;20030;-59
2022/06/01 12:01:35;;;;;;;20.55;19.45;;;;;;;;;;5034136;28;20166;-59
2022/06/01 12:04:22;;;;;;;20.75;19.65;;;;;;;;;;5032618;28;20032;-60
2022/06/01 12:07:06;;;;;;;20.58;19.48;;;;;;;;;;5031157;28;20077;-59
2022/06/01 12:09:49;;;;;;;26.42;25.02;;;;;;;;;;5036306;28;20048;-59
2022/06/01 12:13:03;;;;;;;40.08;38.00;;;;;;;;;;5030089;28;20033;-58
2022/06/01 12:16:03;;;;;;;26.52;25.13;;;;;;;;;;5029444;28;20116;-59
2022/06/01 12:18:29;;;;;;;36.20;34.33;;;;;;;;;;5032273;28;20040;-60
2022/06/01 12:21:20;;;;;;;40.63;38.58;;;;;;;;;;5031779;28;20057;-60
2022/06/01 12:30:02;;;;;;;23.10;21.90;;;;;;;;;;5030264;28;20059;-59
2022/06/01 12:32:29;;;;;;;40.10;38.08;;;;;;;;;;5032754;28;20041;-59
2022/06/01 12:35:18;;;;;;;46.50;44.15;;;;;;;;;;5033695;28;20509;-60
2022/06/01 12:37:57;;;;;;;43.40;41.20;;;;;;;;;;5037289;28;20542;-59
2022/06/01 12:40:24;;;;;;;39.85;37.80;;;;;;;;;;5030347;28;20036;-60
2022/06/01 12:43:01;;;;;;;39.80;37.80;;;;;;;;;;5030582;28;20457;-58
2022/06/01 12:45:46;;;;;;;36.58;34.67;;;;;;;;;;5031325;28;20127;-59
2022/06/01 12:48:19;;;;;;;37.35;35.45;;;;;;;;;;5029633;28;20125;-59
2022/06/01 12:50:55;;;;;;;28.75;27.25;;;;;;;;;;5029128;28;20030;-59
2022/06/01 12:53:42;;;;;;;34.58;32.78;;;;;;;;;;5030593;28;20459;-58
2022/06/01 12:56:15;;;;;;;37.88;35.95;;;;;;;;;;5032063;28;20056;-59
2022/06/01 12:58:41;;;;;;;30.95;29.35;;;;;;;;;;5027778;28;20455;-58
2022/06/01 13:01:08;;;;;;;29.20;27.67;;;;;;;;;;5028147;28;20037;-58
2022/06/01 13:03:34;;;;;;;26.30;24.90;;;;;;;;;;5029669;28;20036;-59
2022/06/01 13:06:09;;;;;;;20.90;19.80;;;;;;;;;;5028182;28;20037;-59
2022/06/01 13:08:39;;;;;;;25.27;23.98;;;;;;;;;;5029978;28;20177;-60
2022/06/01 13:11:30;;;;;;;;;;;;;;;;;;5032047;28;20033;-60
2022/06/01 13:13:58;;;;;;;36.25;34.40;;;;;;;;;;5027826;28;19920;-59
2022/06/01 13:16:37;;;;;;;38.72;35.45;;;;;;;;;;5030090;28;20514;-60
2022/06/01 13:19:18;;;;;;;35.28;33.47;;;;;;;;;;5029033;28;20091;-58
2022/06/01 13:21:49;;;;;;;31.27;29.67;;;;;;;;;;5028322;28;20032;-59
2022/06/01 13:24:15;;;;;;;35.92;34.05;;;;;;;;;;5027559;28;20030;-58
2022/06/01 13:26:45;;;;;;;37.88;35.95;;;;;;;;;;5031163;28;20040;-58
2022/06/01 13:29:23;;;;;;;53.38;50.67;;;;;;;;;;5017024;28;20033;-59
2022/06/01 13:31:52;;;;;;;67.57;64.18;;;;;;;;;;5031534;28;20045;-59
2022/06/01 13:34:39;;;;;;;42.05;39.90;;;;;;;;;;5017122;28;20037;-59
2022/06/01 13:37:17;;;;;;;62.30;59.15;;;;;;;;;;5032193;28;20021;-59
2022/06/01 13:39:54;;;;;;;101.03;95.88;;;;;;;;;;5035793;28;20086;-59
2022/06/01 13:42:31;;;;;;;208.68;198.35;;;;;;;;;;5032760;28;20113;-59
2022/06/01 13:45:03;;;;;;;109.93;104.32;;;;;;;;;;5029847;28;20040;-59
2022/06/01 13:47:39;;;;;;;237.75;226.02;;;;;;;;;;5034760;28;20043;-58
2022/06/01 13:50:29;;;;;;;182.75;173.60;;;;;;;;;;5030242;28;20033;-58
2022/06/01 13:52:54;;;;;;;79.15;75.18;;;;;;;;;;5032006;28;20040;-58
2022/06/01 13:55:24;;;;;;;112.72;106.97;;;;;;;;;;5032615;28;21211;-58
2022/06/01 13:58:10;;;;;;;;;;;;;;;;;;5031891;28;20088;-58
2022/06/01 14:00:41;;;;;;;177.27;168.45;;;;;;;;;;5031258;28;19917;-58
2022/06/01 14:03:32;;;;;;;225.00;213.93;;;;;;;;;;5032846;28;20040;-58
2022/06/01 14:05:57;;;;;;;263.38;250.43;;;;;;;;;;5032269;28;20037;-58
2022/06/01 14:08:35;;;;;;;244.07;232.00;;;;;;;;;;5034205;28;20033;-58
2022/06/01 14:11:03;;;;;;;253.15;240.65;;;;;;;;;;5033194;28;20788;-59
2022/06/01 14:13:36;;;;;;;279.40;265.63;;;;;;;;;;5030929;28;20121;-59
2022/06/01 14:16:01;;;;;;;193.77;184.20;;;;;;;;;;5033986;28;20518;-58
2022/06/01 14:18:29;;;;;;;184.68;175.35;;;;;;;;;;5031941;28;20033;-58
2022/06/01 14:20:55;;;;;;;291.65;277.13;;;;;;;;;;5031587;28;20044;-58
2022/06/01 14:23:21;;;;;;;270.70;257.40;;;;;;;;;;5029732;28;20496;-59
2022/06/01 14:28:33;;;;;;;262.85;249.88;;;;;;;;;;5032354;28;20037;-59
2022/06/01 14:31:03;;;;;;;269.05;255.75;;;;;;;;;;5034226;28;20017;-59
2022/06/01 14:33:29;;;;;;;188.65;178.93;;;;;;;;;;5037793;28;20025;-59
2022/06/01 14:35:55;;;;;;;82.65;78.50;;;;;;;;;;5033040;28;20156;-60
2022/06/01 14:38:22;;;;;;;83.50;79.30;;;;;;;;;;5035723;28;20037;-60
2022/06/01 14:40:49;;;;;;;92.97;88.30;;;;;;;;;;5035537;28;20132;-60
2022/06/01 14:43:20;;;;;;;85.78;81.47;;;;;;;;;;5030242;28;20029;-60
2022/06/01 14:45:45;;;;;;;118.18;112.22;;;;;;;;;;5034818;28;20021;-60
2022/06/01 14:48:10;;;;;;;78.30;74.38;;;;;;;;;;5032607;28;20041;-60
2022/06/01 14:50:36;;;;;;;84.50;80.25;;;;;;;;;;5029552;28;20112;-58
2022/06/01 14:53:16;;;;;;;97.78;92.88;;;;;;;;;;5030966;28;20701;-60
2022/06/01 14:55:41;;;;;;;80.55;76.55;;;;;;;;;;5031999;28;20112;-59
2022/06/01 14:58:07;;;;;;;91.97;87.38;;;;;;;;;;5033283;28;20239;-59
2022/06/01 15:00:32;;;;;;;80.00;76.05;;;;;;;;;;5031819;28;20533;-59
2022/06/01 15:02:57;;;;;;;82.13;78.07;;;;;;;;;;5033746;28;20044;-59
2022/06/01 15:05:25;;;;;;;85.30;81.10;;;;;;;;;;5028518;28;20120;-59
2022/06/01 15:07:51;;;;;;;81.57;77.53;;;;;;;;;;5030533;28;20044;-59
2022/06/01 15:10:16;;;;;;;70.22;66.72;;;;;;;;;;5034960;28;20025;-59
2022/06/01 15:12:41;;;;;;;74.60;70.90;;;;;;;;;;5031944;28;20029;-60
2022/06/01 15:15:08;;;;;;;80.25;76.30;;;;;;;;;;5036438;28;20040;-60
2022/06/01 15:17:33;;;;;;;80.35;76.38;;;;;;;;;;5035505;28;20025;-59
2022/06/01 15:19:59;;;;;;;84.18;80.03;;;;;;;;;;5035705;28;20064;-60
2022/06/01 15:22:24;;;;;;;80.40;76.40;;;;;;;;;;5034931;28;20095;-60
2022/06/01 15:24:50;;;;;;;71.72;68.18;;;;;;;;;;5034359;28;20017;-60
2022/06/01 15:27:21;;;;;;;75.38;71.65;;;;;;;;;;5031796;28;20041;-62
2022/06/01 15:40:42;;;;;;;96.30;91.47;;;;;;;;;;5034914;28;20105;-60